Time;durP1;ratioP1;P1;durP2;ratioP2;P2;SDS_P1;SDS_P2;PMS_P1;PMS_P2;Temp;Humidity;BMP_temperature;BMP_pressure;BME280_temperature;BME280_humidity;BME280_pressure;Samples;Min_cycle;Max_cycle;Signal;HPM_P1;HPM_P2
2023/09/27 00:00:09;;;;;;;15.43;5.00;;;;;;;23.27;59.65;101352.09;5068012;28;20044;-46
2023/09/27 00:02:41;;;;;;;8.38;4.45;;;;;;;23.23;59.65;101363.31;5094140;28;20058;-46
2023/09/27 00:05:10;;;;;;;11.25;4.72;;;;;;;23.23;59.93;101368.94;5088920;28;20048;-50
2023/09/27 00:07:39;;;;;;;8.25;4.50;;;;;;;23.20;60.05;101368.88;5078068;28;20064;-51
2023/09/27 00:10:11;;;;;;;9.70;5.07;;;;;;;23.21;60.37;101365.69;5078881;28;20053;-51
2023/09/27 00:12:40;;;;;;;14.07;5.13;;;;;;;23.19;60.57;101362.44;5058371;28;20036;-52
2023/09/27 00:15:10;;;;;;;9.75;4.53;;;;;;;23.18;60.42;101360.84;5080473;28;20040;-50
2023/09/27 00:17:38;;;;;;;11.77;4.72;;;;;;;23.16;60.82;101359.59;5094833;28;20052;-45
2023/09/27 00:20:09;;;;;;;9.90;4.57;;;;;;;23.15;60.95;101349.56;5077271;28;20053;-48
2023/09/27 00:22:37;;;;;;;8.85;4.30;;;;;;;23.15;61.41;101353.16;5080725;28;20391;-50
2023/09/27 00:25:07;;;;;;;9.15;4.47;;;;;;;23.13;61.25;101361.19;5076591;28;20123;-45
2023/09/27 00:27:35;;;;;;;14.55;4.20;;;;;;;23.13;61.34;101352.75;5086172;28;20064;-52
2023/09/27 00:30:04;;;;;;;9.73;4.95;;;;;;;23.12;61.35;101347.47;5073115;28;20056;-50
2023/09/27 00:32:31;;;;;;;9.63;5.15;;;;;;;23.11;61.50;101345.88;5075019;28;20056;-46
2023/09/27 00:34:59;;;;;;;8.65;4.50;;;;;;;23.11;61.51;101345.88;5043698;28;20059;-52
2023/09/27 00:37:27;;;;;;;8.35;4.03;;;;;;;23.10;61.58;101361.91;5069113;28;20049;-53
2023/09/27 00:39:55;;;;;;;8.45;4.70;;;;;;;23.10;61.75;101347.09;5076992;28;20490;-46
2023/09/27 00:42:23;;;;;;;9.80;4.63;;;;;;;23.09;61.84;101348.25;5086662;28;20048;-52
2023/09/27 00:44:51;;;;;;;8.23;4.30;;;;;;;23.08;61.52;101341.81;5076674;28;20079;-50
2023/09/27 00:47:18;;;;;;;10.15;4.80;;;;;;;23.10;61.65;101335.84;5066114;28;20036;-46
2023/09/27 00:49:47;;;;;;;8.73;4.20;;;;;;;23.12;61.66;101341.88;5090784;28;20048;-49
2023/09/27 00:52:16;;;;;;;8.20;4.25;;;;;;;23.16;61.66;101342.72;5090751;28;20036;-40
2023/09/27 00:54:43;;;;;;;10.18;4.30;;;;;;;23.17;61.58;101338.75;5057798;28;20052;-39
2023/09/27 00:57:11;;;;;;;8.85;4.40;;;;;;;23.19;61.37;101336.31;5089850;28;20402;-39
2023/09/27 00:59:38;;;;;;;9.65;4.20;;;;;;;23.20;61.29;101337.97;5058616;28;20056;-39
2023/09/27 01:02:05;;;;;;;7.28;4.32;;;;;;;23.21;61.38;101336.75;5060446;28;20055;-38
2023/09/27 01:04:33;;;;;;;9.80;4.40;;;;;;;23.21;61.35;101342.38;5060061;28;20055;-39
2023/09/27 01:07:01;;;;;;;8.98;4.82;;;;;;;23.20;61.52;101335.16;5073057;28;20040;-39
2023/09/27 01:09:31;;;;;;;9.73;4.07;;;;;;;23.21;61.77;101331.94;5076864;28;20044;-41
2023/09/27 01:11:58;;;;;;;;;;;;;;;23.20;61.47;101330.34;5095125;28;20696;-47
2023/09/27 01:14:26;;;;;;;7.53;4.50;;;;;;;23.20;61.43;101326.72;5094398;28;20033;-44
2023/09/27 01:16:53;;;;;;;10.18;4.43;;;;;;;23.18;61.54;101321.50;5094386;28;20040;-50
2023/09/27 01:19:20;;;;;;;9.18;4.40;;;;;;;23.16;61.55;101332.31;5091586;28;20044;-49
2023/09/27 01:21:48;;;;;;;8.43;4.25;;;;;;;23.16;61.44;101326.69;5072282;28;20055;-45
2023/09/27 01:24:15;;;;;;;8.50;4.00;;;;;;;23.14;61.69;101319.81;5093883;28;20052;-47
2023/09/27 01:26:43;;;;;;;9.52;4.18;;;;;;;23.12;61.84;101316.56;5075732;28;20052;-48
2023/09/27 01:29:10;;;;;;;9.18;4.05;;;;;;;23.11;61.69;101329.84;5080956;28;20075;-39
2023/09/27 01:31:39;;;;;;;8.60;4.53;;;;;;;23.12;61.65;101330.63;5058673;28;20063;-39
2023/09/27 01:34:06;;;;;;;7.63;4.38;;;;;;;23.11;61.49;101340.25;5093623;28;20099;-38
2023/09/27 01:36:34;;;;;;;7.00;4.13;;;;;;;23.10;61.93;101345.06;5092219;28;20048;-39
2023/09/27 01:39:02;;;;;;;7.00;4.00;;;;;;;23.10;61.80;101333.03;5043192;28;20075;-52
2023/09/27 01:41:29;;;;;;;7.47;4.30;;;;;;;23.08;61.68;101326.97;5087150;28;20055;-38
2023/09/27 01:43:57;;;;;;;7.43;3.95;;;;;;;23.09;61.78;101322.97;5059313;28;20055;-49
2023/09/27 01:46:24;;;;;;;7.43;4.28;;;;;;;23.08;61.74;101324.94;5086073;28;20569;-50
2023/09/27 01:48:52;;;;;;;8.85;4.18;;;;;;;23.07;62.04;101331.78;5093460;28;20048;-48
2023/09/27 01:51:20;;;;;;;7.13;3.83;;;;;;;23.07;61.68;101322.53;5058828;28;20070;-46
2023/09/27 01:53:47;;;;;;;7.20;4.30;;;;;;;23.07;61.97;101333.78;5080133;28;20052;-47
2023/09/27 01:56:14;;;;;;;9.65;4.28;;;;;;;23.07;62.08;101328.16;5092568;28;20054;-44
2023/09/27 01:58:42;;;;;;;6.85;3.90;;;;;;;23.06;62.16;101341.41;5075267;28;20062;-47
2023/09/27 02:01:09;;;;;;;8.98;3.92;;;;;;;23.06;62.20;101349.03;5076133;28;20054;-45
2023/09/27 02:03:37;;;;;;;11.30;4.68;;;;;;;23.05;62.15;101342.59;5093981;28;20051;-40
2023/09/27 02:06:04;;;;;;;8.30;4.03;;;;;;;23.03;62.17;101335.75;5093956;28;20510;-39
2023/09/27 02:08:32;;;;;;;8.63;3.78;;;;;;;23.02;62.23;101345.34;5054521;28;20066;-38
2023/09/27 02:10:59;;;;;;;7.10;3.72;;;;;;;23.02;62.27;101345.34;5091967;28;20051;-39
2023/09/27 02:13:29;;;;;;;;;;;;;;;23.03;62.37;101332.94;5058927;28;20059;-38
2023/09/27 02:15:56;;;;;;;8.10;4.30;;;;;;;23.03;62.47;101332.94;5066008;28;19927;-39
2023/09/27 02:18:24;;;;;;;8.15;4.05;;;;;;;23.05;62.56;101331.34;5074331;28;20048;-38
2023/09/27 02:20:52;;;;;;;7.20;3.90;;;;;;;23.04;62.17;101326.13;5091604;28;20398;-39
2023/09/27 02:23:19;;;;;;;7.05;3.95;;;;;;;23.06;62.29;101321.75;5054937;28;20474;-39
2023/09/27 02:25:56;;;;;;;9.32;4.05;;;;;;;23.07;62.09;101314.91;5089351;28;20047;-38
2023/09/27 02:28:24;;;;;;;6.85;3.90;;;;;;;23.05;62.23;101317.28;5092734;28;20051;-50
2023/09/27 02:30:51;;;;;;;8.20;3.97;;;;;;;23.06;62.57;101316.13;5072536;28;20048;-49
2023/09/27 02:33:20;;;;;;;6.53;3.80;;;;;;;23.05;62.59;101311.69;5093691;28;20044;-48
2023/09/27 02:35:47;;;;;;;6.80;4.00;;;;;;;23.06;62.42;101318.13;5054107;28;20039;-38
2023/09/27 02:38:15;;;;;;;8.18;3.90;;;;;;;23.07;62.55;101320.53;5064076;28;20044;-39
2023/09/27 02:40:42;;;;;;;10.75;3.90;;;;;;;23.08;62.50;101326.97;5086771;28;20051;-42
2023/09/27 02:43:10;;;;;;;6.20;3.72;;;;;;;23.03;62.65;101324.50;5092797;28;20055;-49
2023/09/27 02:45:37;;;;;;;8.70;3.97;;;;;;;23.03;62.70;101327.31;5093591;28;20398;-39
2023/09/27 02:48:05;;;;;;;13.73;4.07;;;;;;;23.02;62.67;101320.88;5074671;28;20043;-46
2023/09/27 02:50:32;;;;;;;7.50;4.15;;;;;;;23.01;62.81;101322.06;5075243;28;20059;-47
2023/09/27 02:52:59;;;;;;;6.75;3.88;;;;;;;23.01;62.88;101329.69;5073473;28;20035;-45
2023/09/27 02:55:27;;;;;;;8.32;4.72;;;;;;;23.00;62.82;101336.50;5088176;28;20053;-49
2023/09/27 02:57:55;;;;;;;6.43;3.78;;;;;;;22.99;62.69;101326.47;5092877;28;20099;-49
2023/09/27 03:00:23;;;;;;;5.75;3.55;;;;;;;22.97;63.02;101323.22;5093547;28;20414;-51
2023/09/27 03:02:50;;;;;;;8.35;4.03;;;;;;;22.98;62.81;101322.03;5094233;28;20044;-46
2023/09/27 03:05:17;;;;;;;6.90;4.00;;;;;;;22.97;62.95;101317.59;5066927;28;20048;-38
2023/09/27 03:07:45;;;;;;;7.75;3.90;;;;;;;22.96;62.85;101313.19;5088797;28;20048;-40
2023/09/27 03:10:13;;;;;;;6.95;3.40;;;;;;;22.95;62.74;101311.56;5101245;28;20049;-39
2023/09/27 03:12:40;;;;;;;5.82;3.80;;;;;;;22.95;62.71;101315.19;5088560;28;20048;-51
2023/09/27 03:15:10;;;;;;;7.30;3.85;;;;;;;22.94;63.16;101310.75;5077155;28;20052;-40
2023/09/27 03:17:41;;;;;;;6.93;4.00;;;;;;;22.94;62.92;101310.75;5075783;28;20048;-50
2023/09/27 03:20:15;;;;;;;7.27;3.80;;;;;;;22.95;62.87;101306.75;5090506;28;20044;-39
2023/09/27 03:22:47;;;;;;;7.57;3.72;;;;;;;23.02;62.80;101304.03;5093165;28;20062;-40
2023/09/27 03:25:18;;;;;;;5.70;3.65;;;;;;;23.06;62.53;101304.06;5075075;28;21529;-39
2023/09/27 03:27:46;;;;;;;6.35;3.88;;;;;;;23.09;62.42;101297.66;5073586;28;20442;-48
2023/09/27 03:30:14;;;;;;;8.25;4.10;;;;;;;23.08;62.44;101296.06;5106523;28;20044;-47
2023/09/27 03:32:42;;;;;;;6.38;3.72;;;;;;;23.10;62.36;101296.50;5057413;28;20059;-46
2023/09/27 03:35:09;;;;;;;7.78;4.10;;;;;;;23.08;62.18;101294.03;5074845;28;20044;-49
2023/09/27 03:37:37;;;;;;;6.28;3.40;;;;;;;23.15;62.03;101279.28;5073793;28;20058;-49
2023/09/27 03:40:13;;;;;;;8.88;3.80;;;;;;;23.19;61.84;101282.91;5092706;28;20048;-40
2023/09/27 03:42:43;;;;;;;6.43;3.70;;;;;;;23.21;61.64;101274.91;5059602;28;20063;-39
2023/09/27 03:45:15;;;;;;;6.22;3.78;;;;;;;23.22;61.50;101280.16;5091317;28;20390;-49
2023/09/27 03:47:47;;;;;;;6.00;3.50;;;;;;;23.23;61.37;101286.59;5067062;28;20036;-46
2023/09/27 03:50:20;;;;;;;6.20;3.55;;;;;;;23.23;61.33;101284.59;5071264;28;20067;-45
2023/09/27 03:52:48;;;;;;;6.03;3.70;;;;;;;23.26;61.20;101275.38;5088227;28;20056;-49
2023/09/27 03:55:15;;;;;;;7.30;3.80;;;;;;;23.26;60.99;101277.38;5086764;28;20044;-39
2023/09/27 03:57:43;;;;;;;6.68;3.60;;;;;;;23.25;61.02;101276.59;5092421;28;20063;-48
2023/09/27 04:00:14;;;;;;;6.35;3.65;;;;;;;23.25;61.32;101285.03;5089600;28;20055;-50
2023/09/27 04:02:46;;;;;;;5.88;3.50;;;;;;;23.26;61.12;101277.38;5058878;28;20051;-48
2023/09/27 04:05:16;;;;;;;7.03;3.97;;;;;;;23.20;61.17;101270.50;5060792;28;20410;-41
2023/09/27 04:07:43;;;;;;;6.85;3.88;;;;;;;23.18;61.63;101268.09;5095504;28;20048;-40
2023/09/27 04:10:11;;;;;;;6.18;3.80;;;;;;;23.14;61.81;101269.22;5096567;28;20040;-38
2023/09/27 04:12:39;;;;;;;6.30;3.53;;;;;;;23.13;61.75;101257.19;5095937;28;20060;-39
2023/09/27 04:15:08;;;;;;;8.85;3.90;;;;;;;23.10;61.72;101252.31;5095499;28;20051;-39
2023/09/27 04:17:37;;;;;;;8.20;3.55;;;;;;;23.09;61.94;101261.94;5096249;28;20118;-38
2023/09/27 04:20:13;;;;;;;7.38;3.72;;;;;;;23.08;62.02;101260.31;5096166;28;20048;-39
2023/09/27 04:22:47;;;;;;;7.13;3.83;;;;;;;23.07;62.01;101260.72;5090497;28;20064;-38
2023/09/27 04:25:15;;;;;;;8.10;4.22;;;;;;;23.06;62.14;101259.09;5095789;28;20054;-39
2023/09/27 04:27:49;;;;;;;7.47;3.72;;;;;;;23.05;62.29;101258.28;5095633;28;20040;-39
2023/09/27 04:30:22;;;;;;;7.18;4.22;;;;;;;23.03;62.25;101255.03;5090064;28;20075;-39
2023/09/27 04:32:50;;;;;;;7.18;4.10;;;;;;;23.03;62.29;101257.84;5095597;28;20047;-50
2023/09/27 04:35:19;;;;;;;5.95;3.78;;;;;;;23.03;62.26;101252.22;5076711;28;20048;-39
2023/09/27 04:37:48;;;;;;;7.65;3.90;;;;;;;23.04;61.99;101241.81;5089554;28;20044;-41
2023/09/27 04:40:16;;;;;;;6.05;3.75;;;;;;;23.04;62.07;101250.25;5096872;28;20047;-39
2023/09/27 04:42:45;;;;;;;6.70;3.65;;;;;;;23.04;62.02;101258.66;5091672;28;20060;-39
2023/09/27 04:45:13;;;;;;;7.65;4.20;;;;;;;23.03;62.09;101251.44;5077006;28;20055;-40
2023/09/27 04:47:41;;;;;;;7.72;3.97;;;;;;;23.01;62.12;101254.63;5093628;28;20066;-39
2023/09/27 04:50:10;;;;;;;6.05;3.65;;;;;;;23.01;62.13;101251.03;5091220;28;20052;-50
2023/09/27 04:52:38;;;;;;;9.60;4.33;;;;;;;23.01;62.05;101245.41;5095623;28;20055;-39
2023/09/27 04:55:07;;;;;;;7.78;3.70;;;;;;;23.00;62.09;101235.34;5075847;28;20056;-40
2023/09/27 04:57:35;;;;;;;9.10;4.13;;;;;;;23.01;61.73;101234.94;5094284;28;20060;-41
2023/09/27 05:00:03;;;;;;;6.93;4.05;;;;;;;23.06;61.35;101240.25;5095194;28;20059;-39
2023/09/27 05:02:31;;;;;;;6.45;3.83;;;;;;;23.10;61.21;101240.28;5093401;28;20067;-39
2023/09/27 05:04:59;;;;;;;7.32;4.03;;;;;;;23.12;61.11;101227.44;5094186;28;20517;-39
2023/09/27 05:07:26;;;;;;;7.53;4.15;;;;;;;23.12;60.97;101221.81;5093334;28;20052;-38
2023/09/27 05:09:54;;;;;;;8.30;4.13;;;;;;;23.15;60.82;101234.31;5095390;28;20075;-39
2023/09/27 05:12:21;;;;;;;7.32;3.92;;;;;;;23.16;60.82;101224.69;5094872;28;20040;-40
2023/09/27 05:14:48;;;;;;;7.57;3.78;;;;;;;23.15;60.61;101239.94;5094338;28;20040;-38
2023/09/27 05:17:16;;;;;;;7.45;3.83;;;;;;;23.18;60.62;101250.41;5095193;28;20842;-41
2023/09/27 05:19:43;;;;;;;7.30;4.28;;;;;;;23.17;60.54;101245.97;5076931;28;20048;-39
2023/09/27 05:22:11;;;;;;;6.25;3.92;;;;;;;23.19;60.74;101243.56;5094925;28;20040;-41
2023/09/27 05:24:39;;;;;;;9.80;4.13;;;;;;;23.16;60.51;101242.34;5095046;28;20410;-47
2023/09/27 05:27:07;;;;;;;9.52;4.50;;;;;;;23.14;60.69;101244.75;5094719;28;20047;-40
2023/09/27 05:29:35;;;;;;;8.10;4.38;;;;;;;23.09;61.09;101241.47;5094735;28;20044;-39
2023/09/27 05:32:03;;;;;;;8.13;4.10;;;;;;;23.05;60.82;101241.44;5075388;28;20052;-38
2023/09/27 05:34:31;;;;;;;6.65;4.43;;;;;;;23.05;61.03;101249.84;5092499;28;20044;-38
2023/09/27 05:36:58;;;;;;;8.95;3.83;;;;;;;23.02;61.03;101250.63;5093003;28;20044;-40
2023/09/27 05:39:26;;;;;;;8.18;4.30;;;;;;;23.03;61.24;101259.88;5076814;28;20051;-51
2023/09/27 05:41:54;;;;;;;7.75;4.20;;;;;;;23.00;61.46;101274.69;5093101;28;20068;-47
2023/09/27 05:44:21;;;;;;;8.88;4.47;;;;;;;22.99;61.27;101270.25;5094298;28;20053;-50
2023/09/27 05:46:49;;;;;;;8.93;4.30;;;;;;;22.98;61.31;101271.47;5092120;28;20186;-48
2023/09/27 05:49:16;;;;;;;7.47;4.13;;;;;;;22.96;61.49;101265.41;5073926;28;20036;-48
2023/09/27 05:51:44;;;;;;;8.45;4.32;;;;;;;22.95;61.50;101275.84;5076147;28;20055;-49
2023/09/27 05:54:12;;;;;;;7.57;4.55;;;;;;;22.97;61.32;101284.69;5094175;28;20123;-49
2023/09/27 05:56:39;;;;;;;7.03;3.90;;;;;;;22.97;61.14;101289.50;5092345;28;20419;-50
2023/09/27 05:59:08;;;;;;;7.85;4.03;;;;;;;22.96;61.37;101283.06;5094168;28;20039;-48
2023/09/27 06:01:37;;;;;;;7.38;4.13;;;;;;;22.95;61.31;101283.44;5093867;28;20055;-51
2023/09/27 06:04:04;;;;;;;10.02;4.47;;;;;;;22.95;61.17;101289.06;5094156;28;20048;-51
2023/09/27 06:06:32;;;;;;;8.32;4.55;;;;;;;22.96;60.84;101282.28;5090905;28;20055;-51
2023/09/27 06:08:59;;;;;;;9.88;4.30;;;;;;;22.95;61.04;101295.50;5074874;28;20513;-50
2023/09/27 06:11:26;;;;;;;9.57;5.00;;;;;;;22.96;60.91;101293.50;5075032;28;20059;-51
2023/09/27 06:13:54;;;;;;;7.28;4.22;;;;;;;22.96;60.97;101290.72;5094359;28;20066;-46
2023/09/27 06:16:21;;;;;;;7.22;4.30;;;;;;;22.95;61.02;101289.06;5093545;28;20043;-52
2023/09/27 06:18:49;;;;;;;8.98;4.63;;;;;;;22.96;60.97;101280.25;5054443;28;20048;-49
2023/09/27 06:21:17;;;;;;;9.48;5.18;;;;;;;23.02;60.49;101289.16;5089877;28;20036;-49
2023/09/27 06:23:44;;;;;;;7.75;4.70;;;;;;;23.05;60.59;101300.44;5093274;28;20056;-46
2023/09/27 06:26:12;;;;;;;8.80;4.43;;;;;;;23.05;60.29;101302.44;5093119;28;20043;-50
2023/09/27 06:28:40;;;;;;;8.50;5.13;;;;;;;23.08;61.62;101296.06;5090371;28;20036;-51
2023/09/27 06:31:07;;;;;;;10.88;4.90;;;;;;;23.07;61.80;101291.63;5093295;28;20067;-48
2023/09/27 06:33:39;;;;;;;8.85;5.25;;;;;;;23.07;64.63;101289.63;5090465;28;20079;-52
2023/09/27 06:36:10;;;;;;;10.68;5.22;;;;;;;23.01;64.41;101296.75;5088547;28;20572;-49
2023/09/27 06:38:38;;;;;;;9.27;5.25;;;;;;;23.06;62.64;101296.47;5093902;28;20043;-39
2023/09/27 06:41:08;;;;;;;12.10;5.47;;;;;;;23.16;63.65;101297.75;5092557;28;20048;-48
2023/09/27 06:43:36;;;;;;;9.82;5.70;;;;;;;23.19;63.23;101300.59;5094432;28;20059;-48
2023/09/27 06:46:10;;;;;;;10.43;5.25;;;;;;;23.17;62.16;101300.16;5083272;28;20044;-48
2023/09/27 06:48:38;;;;;;;11.52;5.13;;;;;;;23.17;62.94;101299.38;5079955;28;20048;-46
2023/09/27 06:51:06;;;;;;;9.88;4.95;;;;;;;23.22;62.61;101310.28;5070591;28;20060;-49
2023/09/27 06:53:34;;;;;;;17.52;6.22;;;;;;;23.21;62.44;101305.84;5086741;28;20537;-48
2023/09/27 06:56:02;;;;;;;20.10;5.80;;;;;;;23.21;65.05;101315.09;5072182;28;20059;-48
2023/09/27 06:58:30;;;;;;;28.73;8.32;;;;;;;23.35;73.96;101312.47;5092472;28;20059;-51
2023/09/27 07:00:57;;;;;;;16.70;7.10;;;;;;;23.35;78.06;101309.66;5085494;28;20047;-50
2023/09/27 07:03:25;;;;;;;27.23;8.05;;;;;;;23.29;80.37;101305.56;5067958;28;20068;-51
2023/09/27 07:05:53;;;;;;;20.30;6.93;;;;;;;23.21;78.71;101301.03;5087602;28;20044;-50
2023/09/27 07:08:21;;;;;;;15.15;7.80;;;;;;;21.59;65.10;101302.59;5075094;28;20051;-41
2023/09/27 07:10:48;;;;;;;19.33;9.57;;;;;;;21.01;66.94;101302.69;5091340;28;20040;-39
2023/09/27 07:13:15;;;;;;;22.77;9.05;;;;;;;21.01;66.84;101304.69;5088327;28;20048;-40
2023/09/27 07:15:45;;;;;;;19.05;9.43;;;;;;;21.08;72.25;101307.63;5091989;28;20048;-40
2023/09/27 07:18:13;;;;;;;17.90;8.23;;;;;;;21.46;76.61;101307.59;5092280;28;20056;-40
2023/09/27 07:20:41;;;;;;;14.60;7.97;;;;;;;21.80;66.21;101301.00;5091200;28;20055;-39
2023/09/27 07:23:14;;;;;;;14.57;8.68;;;;;;;20.63;68.44;101287.84;5085319;28;20044;-42
2023/09/27 07:25:44;;;;;;;22.95;8.90;;;;;;;20.45;68.66;101295.06;5073504;28;20499;-39
2023/09/27 07:28:11;;;;;;;19.10;8.15;;;;;;;20.62;76.02;101292.66;5091191;28;20048;-39
2023/09/27 07:30:39;;;;;;;23.77;8.77;;;;;;;21.42;71.48;101291.88;5089346;28;20040;-40
2023/09/27 07:33:09;;;;;;;19.38;8.05;;;;;;;22.17;68.51;101276.78;5073617;28;20067;-47
2023/09/27 07:35:42;;;;;;;12.43;6.80;;;;;;;22.52;66.33;101282.09;5053353;28;20048;-39
2023/09/27 07:38:13;;;;;;;12.85;6.45;;;;;;;22.69;65.07;101297.56;5087658;28;20379;-38
2023/09/27 07:40:45;;;;;;;13.10;7.63;;;;;;;22.76;64.31;101297.66;5077279;28;20257;-48
2023/09/27 07:43:14;;;;;;;12.18;6.25;;;;;;;22.85;63.38;101298.19;5077651;28;20048;-49
2023/09/27 07:45:43;;;;;;;14.77;6.82;;;;;;;22.81;62.98;101288.88;5074051;28;20061;-52
2023/09/27 07:48:11;;;;;;;16.67;7.57;;;;;;;22.72;63.41;101292.00;5094932;28;20048;-47
2023/09/27 07:50:39;;;;;;;17.08;7.50;;;;;;;22.72;63.46;101296.78;5092322;28;20048;-53
2023/09/27 07:53:11;;;;;;;18.70;7.82;;;;;;;22.61;62.84;101293.06;5095741;28;20044;-46
2023/09/27 07:55:46;;;;;;;17.50;8.27;;;;;;;22.43;63.24;101283.53;5093045;28;20482;-50
2023/09/27 07:58:13;;;;;;;20.83;7.80;;;;;;;22.35;64.28;101286.25;5089706;28;20537;-39
2023/09/27 08:00:41;;;;;;;20.02;7.22;;;;;;;22.30;64.17;101283.78;5092771;28;20047;-40
2023/09/27 08:03:10;;;;;;;16.48;7.03;;;;;;;22.29;64.54;101281.34;5095777;28;20043;-39
2023/09/27 08:05:45;;;;;;;17.67;7.30;;;;;;;22.59;63.54;101282.22;5079154;28;20060;-40
2023/09/27 08:08:16;;;;;;;17.10;6.60;;;;;;;22.34;64.13;101281.81;5094129;28;20107;-39
2023/09/27 08:10:45;;;;;;;14.38;7.15;;;;;;;22.42;63.62;101273.50;5060741;28;20040;-42
2023/09/27 08:13:17;;;;;;;11.65;6.28;;;;;;;22.54;63.79;101271.31;5091555;28;20048;-41
2023/09/27 08:15:48;;;;;;;14.90;6.05;;;;;;;22.07;64.41;101271.78;5086848;28;20781;-39
2023/09/27 08:18:16;;;;;;;19.83;6.53;;;;;;;22.18;63.43;101266.34;5094061;28;20412;-40
2023/09/27 08:20:44;;;;;;;20.17;6.75;;;;;;;22.41;62.88;101269.06;5093129;28;20047;-41
2023/09/27 08:23:11;;;;;;;16.13;6.43;;;;;;;21.99;65.48;101277.66;5076303;28;20048;-40
2023/09/27 08:25:39;;;;;;;15.60;5.78;;;;;;;22.23;64.73;101266.81;5092102;28;20058;-39
2023/09/27 08:28:06;;;;;;;18.90;5.70;;;;;;;22.41;64.05;101263.44;5092953;28;20488;-42
2023/09/27 08:30:34;;;;;;;12.00;5.47;;;;;;;22.61;63.19;101257.38;5094354;28;20554;-41
2023/09/27 08:33:01;;;;;;;16.13;5.97;;;;;;;22.71;62.24;101253.88;5095507;28;20048;-41
2023/09/27 08:35:29;;;;;;;14.30;5.60;;;;;;;22.81;62.52;101243.94;5076021;28;20055;-40
2023/09/27 08:37:56;;;;;;;18.33;5.78;;;;;;;22.91;62.13;101246.88;5058925;28;20048;-44
2023/09/27 08:40:24;;;;;;;8.88;4.82;;;;;;;22.98;61.93;101243.38;5095482;28;20455;-43
2023/09/27 08:42:58;;;;;;;17.20;5.38;;;;;;;23.01;61.77;101234.16;5089612;28;20052;-42
2023/09/27 08:45:26;;;;;;;14.07;5.40;;;;;;;22.90;61.91;101228.41;5087151;28;20054;-41
2023/09/27 08:47:56;;;;;;;15.60;5.35;;;;;;;22.96;61.89;101217.66;5089883;28;20698;-40
2023/09/27 08:50:24;;;;;;;14.15;4.95;;;;;;;23.02;61.36;101222.53;5089541;28;20494;-42
2023/09/27 08:52:52;;;;;;;13.23;5.18;;;;;;;23.04;61.51;101219.34;5099450;28;20059;-40
2023/09/27 08:55:20;;;;;;;19.23;6.10;;;;;;;23.07;60.46;101212.94;5093184;28;20059;-48
2023/09/27 08:57:49;;;;;;;16.95;6.80;;;;;;;22.72;60.25;101213.34;5075820;28;20048;-48
2023/09/27 09:00:21;;;;;;;14.18;5.30;;;;;;;22.40;63.12;101203.72;5092557;28;20052;-46
2023/09/27 09:02:56;;;;;;;14.20;6.55;;;;;;;22.25;62.54;101202.72;5059411;28;20055;-47
2023/09/27 09:05:27;;;;;;;19.02;6.80;;;;;;;22.31;62.83;101192.78;5088421;28;20061;-52
2023/09/27 09:07:57;;;;;;;11.85;6.03;;;;;;;22.35;63.77;101190.00;5092928;28;20484;-46
2023/09/27 09:10:24;;;;;;;12.97;6.90;;;;;;;22.16;63.42;101190.94;5101561;27;20570;-45
2023/09/27 09:12:52;;;;;;;12.38;6.63;;;;;;;22.20;63.56;101194.63;5094762;28;20047;-50
2023/09/27 09:15:34;;;;;;;13.70;6.32;;;;;;;22.07;63.56;101193.22;5090959;28;20063;-47
2023/09/27 09:18:06;;;;;;;12.43;6.28;;;;;;;22.23;64.46;101193.03;5071058;28;20057;-46
2023/09/27 09:20:48;;;;;;;10.38;5.85;;;;;;;22.31;63.43;101186.34;5089901;28;20052;-50
2023/09/27 09:23:36;;;;;;;14.63;6.50;;;;;;;22.06;63.04;101188.81;5089795;28;20055;-46
2023/09/27 09:26:05;;;;;;;10.70;5.60;;;;;;;22.13;63.67;101188.91;5091059;28;20047;-49
2023/09/27 09:28:35;;;;;;;16.83;6.18;;;;;;;22.42;62.86;101187.28;5093078;28;20036;-46
2023/09/27 09:31:03;;;;;;;16.33;5.75;;;;;;;22.54;62.24;101189.03;5077000;28;20043;-47
2023/09/27 09:33:36;;;;;;;16.35;5.47;;;;;;;22.34;62.68;101194.81;5094413;28;20055;-47
2023/09/27 09:36:04;;;;;;;16.95;6.20;;;;;;;22.47;62.60;101186.13;5093259;28;20046;-48
2023/09/27 09:38:34;;;;;;;12.98;5.32;;;;;;;22.65;60.92;101195.63;5074597;28;20040;-44
2023/09/27 09:41:01;;;;;;;14.65;6.05;;;;;;;22.71;61.88;101194.06;5086483;28;20047;-46
2023/09/27 09:43:30;;;;;;;21.33;5.55;;;;;;;22.77;60.52;101181.31;5087252;28;20060;-53
2023/09/27 09:45:57;;;;;;;13.88;4.97;;;;;;;22.82;61.51;101192.22;5094359;28;20052;-45
2023/09/27 09:48:25;;;;;;;16.23;5.88;;;;;;;22.91;60.96;101189.91;5093552;28;20067;-49
2023/09/27 09:51:01;;;;;;;13.60;5.78;;;;;;;22.82;61.36;101186.59;5093518;28;20048;-46
2023/09/27 09:53:29;;;;;;;12.98;5.88;;;;;;;22.91;61.27;101176.66;5072111;28;20059;-47
2023/09/27 09:56:02;;;;;;;12.13;5.38;;;;;;;22.86;61.05;101171.38;5078347;28;20051;-47
2023/09/27 09:58:34;;;;;;;9.82;5.07;;;;;;;22.90;61.17;101163.00;5086541;28;20048;-47
2023/09/27 10:01:03;;;;;;;21.42;13.10;;;;;;;22.75;60.98;101156.41;5093517;28;20047;-46
2023/09/27 10:03:33;;;;;;;14.57;6.68;;;;;;;22.67;61.03;101162.31;5075000;28;20399;-48
2023/09/27 10:06:01;;;;;;;;;;;;;;;22.66;60.78;101157.91;5070588;28;20056;-46
2023/09/27 10:08:34;;;;;;;15.63;5.50;;;;;;;22.66;61.60;101147.50;5093516;28;19920;-43
2023/09/27 10:11:06;;;;;;;12.35;5.55;;;;;;;22.71;61.66;101146.34;5087299;28;20070;-47
2023/09/27 10:13:39;;;;;;;10.75;5.57;;;;;;;22.61;61.73;101139.44;5093970;28;20056;-44
2023/09/27 10:16:08;;;;;;;12.75;5.47;;;;;;;22.77;61.45;101117.50;5090480;28;20048;-47
2023/09/27 10:18:37;;;;;;;13.43;5.45;;;;;;;22.70;60.89;101116.66;5091774;28;20055;-55
2023/09/27 10:21:07;;;;;;;13.68;4.68;;;;;;;22.61;60.69;101116.13;5089219;28;20407;-54
2023/09/27 10:23:43;;;;;;;14.68;4.65;;;;;;;22.59;61.68;101108.09;5074593;28;20051;-55
2023/09/27 10:26:22;;;;;;;10.40;4.80;;;;;;;22.70;59.62;101117.44;5087284;28;20045;-58
2023/09/27 10:31:31;;;;;;;11.52;5.07;;;;;;;22.73;58.00;101116.69;5089446;28;20558;-54
2023/09/27 10:33:58;;;;;;;12.90;6.28;;;;;;;22.87;60.09;101119.63;5094514;28;20059;-55
2023/09/27 10:36:27;;;;;;;12.60;4.90;;;;;;;22.80;60.15;101113.94;5077217;28;20056;-54
2023/09/27 10:38:54;;;;;;;10.05;5.45;;;;;;;22.80;60.45;101111.13;5084204;28;20048;-56
2023/09/27 10:41:34;;;;;;;24.25;16.50;;;;;;;22.76;58.23;101107.47;5092410;28;20056;-53
2023/09/27 10:44:02;;;;;;;;;;;;;;;22.92;59.13;101105.22;5089741;28;20059;-51
2023/09/27 10:46:47;;;;;;;9.50;5.38;;;;;;;23.19;58.75;101111.47;5086134;28;19920;-55
2023/09/27 10:49:26;;;;;;;16.95;5.47;;;;;;;23.50;58.85;101101.72;5087698;28;20634;-54
2023/09/27 10:51:54;;;;;;;9.60;5.03;;;;;;;23.59;58.16;101108.59;5079227;28;20048;-54
2023/09/27 10:54:35;;;;;;;14.90;5.57;;;;;;;23.53;58.62;101112.97;5082235;28;20056;-56
2023/09/27 10:57:03;;;;;;;12.02;6.40;;;;;;;23.70;56.15;101106.66;5087768;28;20067;-58
2023/09/27 10:59:30;;;;;;;10.20;5.50;;;;;;;23.83;56.92;101109.94;5074857;28;20055;-57
2023/09/27 11:02:03;;;;;;;12.38;6.38;;;;;;;23.91;58.60;101115.22;5080299;28;20040;-58
2023/09/27 11:04:32;;;;;;;16.60;9.38;;;;;;;24.02;57.27;101115.31;5086512;28;20052;-57
2023/09/27 11:07:00;;;;;;;22.05;13.73;;;;;;;24.18;55.96;101116.56;5080480;28;20047;-57
2023/09/27 11:09:27;;;;;;;15.00;7.95;;;;;;;24.21;57.04;101113.00;5086142;28;20071;-54
2023/09/27 11:11:57;;;;;;;11.45;7.03;;;;;;;24.30;54.90;101109.81;5091018;28;20063;-57
2023/09/27 11:14:31;;;;;;;11.18;5.75;;;;;;;24.26;55.56;101108.97;5094095;28;20048;-54
2023/09/27 11:17:22;;;;;;;8.68;5.13;;;;;;;24.20;54.69;101108.53;5094787;28;20048;-61
2023/09/27 11:19:50;;;;;;;18.60;9.18;;;;;;;24.40;54.56;101101.38;5086380;28;20055;-59
2023/09/27 11:22:27;;;;;;;13.50;7.22;;;;;;;24.41;53.84;101096.53;5078651;28;20070;-58
2023/09/27 11:24:55;;;;;;;11.27;6.25;;;;;;;24.71;53.06;101082.16;5087720;28;20063;-57
2023/09/27 11:27:22;;;;;;;10.88;6.45;;;;;;;24.83;52.68;101081.75;5085243;28;20051;-56
2023/09/27 11:29:53;;;;;;;24.00;19.65;;;;;;;24.78;51.61;101074.53;5097604;28;20059;-50
2023/09/27 11:32:21;;;;;;;18.70;11.88;;;;;;;24.69;51.12;101074.09;5086756;28;20044;-55